Terminal Aerodrome Forecast
Issued by NWS Salt Lake City, UT

Home | Current Version | Previous Version | Text Only | Print | Product List | Glossary On
Versions: 1 2 3 4 5 6 7 8 9 10 11 12 13 14 15 16 17 18 19 20 21 22 23 24 25 26 27
000
FTUS45 KSLC 201801 AAA
TAFSLC
TAF AMD
KSLC 201801Z 2018/2124 29025G35KT P6SM SCT040 BKN070
      TEMPO 2018/2019 3SM HZ
     FM202000 33015G25KT P6SM -SHRA SCT025 OVC040
     FM210100 34011KT P6SM SCT035 BKN070
     FM210800 15005KT P6SM SCT120=

USA.gov is the U.S. government's official web portal to all federal, state and local government web resources and services.